sensor_id;sensor_type;location;lat;lon;timestamp;P1;durP1;ratioP1;P2;durP2;ratioP2
31848;SDS011;18414;59.352;18.152;2023-06-22T00:00:58;8.07;;;7.28;;
31848;SDS011;18414;59.352;18.152;2023-06-22T00:03:24;8.15;;;7.00;;
31848;SDS011;18414;59.352;18.152;2023-06-22T00:05:50;8.05;;;7.32;;
31848;SDS011;18414;59.352;18.152;2023-06-22T00:08:16;9.02;;;7.75;;
31848;SDS011;18414;59.352;18.152;2023-06-22T00:10:41;7.93;;;7.13;;
31848;SDS011;18414;59.352;18.152;2023-06-22T00:13:07;8.15;;;6.55;;
31848;SDS011;18414;59.352;18.152;2023-06-22T00:15:33;9.32;;;7.63;;
31848;SDS011;18414;59.352;18.152;2023-06-22T00:17:59;7.47;;;6.78;;
31848;SDS011;18414;59.352;18.152;2023-06-22T00:20:25;8.02;;;7.22;;
31848;SDS011;18414;59.352;18.152;2023-06-22T00:22:53;8.27;;;7.47;;
31848;SDS011;18414;59.352;18.152;2023-06-22T00:25:21;7.57;;;6.88;;
31848;SDS011;18414;59.352;18.152;2023-06-22T00:27:47;8.50;;;7.32;;
31848;SDS011;18414;59.352;18.152;2023-06-22T00:30:13;8.13;;;7.40;;
31848;SDS011;18414;59.352;18.152;2023-06-22T00:32:38;8.98;;;7.55;;
31848;SDS011;18414;59.352;18.152;2023-06-22T00:35:03;8.60;;;7.80;;
31848;SDS011;18414;59.352;18.152;2023-06-22T00:37:29;8.63;;;7.75;;
31848;SDS011;18414;59.352;18.152;2023-06-22T00:39:55;9.13;;;8.00;;
31848;SDS011;18414;59.352;18.152;2023-06-22T00:42:21;7.72;;;7.03;;
31848;SDS011;18414;59.352;18.152;2023-06-22T00:44:47;8.77;;;7.47;;
31848;SDS011;18414;59.352;18.152;2023-06-22T00:47:15;7.90;;;7.20;;
31848;SDS011;18414;59.352;18.152;2023-06-22T00:49:42;8.25;;;7.45;;
31848;SDS011;18414;59.352;18.152;2023-06-22T00:52:08;8.13;;;7.05;;
31848;SDS011;18414;59.352;18.152;2023-06-22T00:54:34;8.82;;;7.93;;
31848;SDS011;18414;59.352;18.152;2023-06-22T00:57:03;10.23;;;7.70;;
31848;SDS011;18414;59.352;18.152;2023-06-22T00:59:29;9.18;;;8.13;;
31848;SDS011;18414;59.352;18.152;2023-06-22T01:01:54;9.60;;;8.00;;
31848;SDS011;18414;59.352;18.152;2023-06-22T01:04:19;8.88;;;7.72;;
31848;SDS011;18414;59.352;18.152;2023-06-22T01:06:52;8.77;;;7.93;;
31848;SDS011;18414;59.352;18.152;2023-06-22T01:09:26;8.45;;;7.65;;
31848;SDS011;18414;59.352;18.152;2023-06-22T01:11:54;10.20;;;7.78;;
31848;SDS011;18414;59.352;18.152;2023-06-22T01:14:35;8.10;;;7.30;;
31848;SDS011;18414;59.352;18.152;2023-06-22T01:17:05;8.25;;;7.53;;
31848;SDS011;18414;59.352;18.152;2023-06-22T01:19:45;8.48;;;7.65;;
31848;SDS011;18414;59.352;18.152;2023-06-22T01:22:15;10.10;;;8.18;;
31848;SDS011;18414;59.352;18.152;2023-06-22T01:24:48;8.48;;;7.68;;
31848;SDS011;18414;59.352;18.152;2023-06-22T01:29:58;10.10;;;8.40;;
31848;SDS011;18414;59.352;18.152;2023-06-22T01:32:32;8.65;;;7.85;;
31848;SDS011;18414;59.352;18.152;2023-06-22T01:34:59;9.35;;;8.00;;
31848;SDS011;18414;59.352;18.152;2023-06-22T01:37:26;8.80;;;7.90;;
31848;SDS011;18414;59.352;18.152;2023-06-22T01:39:52;8.93;;;8.07;;
31848;SDS011;18414;59.352;18.152;2023-06-22T01:42:19;9.35;;;8.45;;
31848;SDS011;18414;59.352;18.152;2023-06-22T01:44:45;9.15;;;8.25;;
31848;SDS011;18414;59.352;18.152;2023-06-22T01:47:11;10.07;;;9.10;;
31848;SDS011;18414;59.352;18.152;2023-06-22T01:49:38;9.98;;;8.32;;
31848;SDS011;18414;59.352;18.152;2023-06-22T01:52:05;9.55;;;8.63;;
31848;SDS011;18414;59.352;18.152;2023-06-22T01:54:31;9.75;;;8.85;;
31848;SDS011;18414;59.352;18.152;2023-06-22T01:56:56;9.10;;;8.30;;
31848;SDS011;18414;59.352;18.152;2023-06-22T02:00:04;10.82;;;9.50;;
31848;SDS011;18414;59.352;18.152;2023-06-22T02:02:13;10.60;;;9.60;;
31848;SDS011;18414;59.352;18.152;2023-06-22T02:04:51;10.77;;;9.82;;
31848;SDS011;18414;59.352;18.152;2023-06-22T02:07:22;14.13;;;9.55;;
31848;SDS011;18414;59.352;18.152;2023-06-22T02:09:48;8.43;;;7.25;;
31848;SDS011;18414;59.352;18.152;2023-06-22T02:12:17;9.13;;;8.23;;
31848;SDS011;18414;59.352;18.152;2023-06-22T02:14:45;8.32;;;7.53;;
31848;SDS011;18414;59.352;18.152;2023-06-22T02:17:11;9.70;;;8.70;;
31848;SDS011;18414;59.352;18.152;2023-06-22T02:19:37;9.68;;;8.77;;
31848;SDS011;18414;59.352;18.152;2023-06-22T02:22:03;8.07;;;7.35;;
31848;SDS011;18414;59.352;18.152;2023-06-22T02:24:28;9.77;;;8.90;;
31848;SDS011;18414;59.352;18.152;2023-06-22T02:26:57;9.50;;;8.52;;
31848;SDS011;18414;59.352;18.152;2023-06-22T02:29:22;8.57;;;7.82;;
31848;SDS011;18414;59.352;18.152;2023-06-22T02:31:48;10.68;;;9.02;;
31848;SDS011;18414;59.352;18.152;2023-06-22T02:34:13;8.77;;;7.97;;
31848;SDS011;18414;59.352;18.152;2023-06-22T02:36:43;9.82;;;8.95;;
31848;SDS011;18414;59.352;18.152;2023-06-22T02:39:17;8.32;;;7.53;;
31848;SDS011;18414;59.352;18.152;2023-06-22T02:41:47;7.57;;;6.88;;
31848;SDS011;18414;59.352;18.152;2023-06-22T02:44:13;8.52;;;6.97;;
31848;SDS011;18414;59.352;18.152;2023-06-22T02:46:40;9.60;;;7.93;;
31848;SDS011;18414;59.352;18.152;2023-06-22T02:49:05;9.60;;;8.77;;
31848;SDS011;18414;59.352;18.152;2023-06-22T02:51:32;8.52;;;7.72;;
31848;SDS011;18414;59.352;18.152;2023-06-22T02:53:59;8.40;;;7.60;;
31848;SDS011;18414;59.352;18.152;2023-06-22T02:56:24;10.02;;;8.77;;
31848;SDS011;18414;59.352;18.152;2023-06-22T02:58:50;9.80;;;8.90;;
31848;SDS011;18414;59.352;18.152;2023-06-22T03:01:16;7.35;;;6.70;;
31848;SDS011;18414;59.352;18.152;2023-06-22T03:03:41;9.65;;;8.75;;
31848;SDS011;18414;59.352;18.152;2023-06-22T03:06:07;7.32;;;6.63;;
31848;SDS011;18414;59.352;18.152;2023-06-22T03:08:32;9.18;;;8.23;;
31848;SDS011;18414;59.352;18.152;2023-06-22T03:10:58;8.70;;;7.93;;
31848;SDS011;18414;59.352;18.152;2023-06-22T03:13:23;9.88;;;8.80;;
31848;SDS011;18414;59.352;18.152;2023-06-22T03:15:49;6.55;;;5.95;;
31848;SDS011;18414;59.352;18.152;2023-06-22T03:18:14;7.72;;;7.03;;
31848;SDS011;18414;59.352;18.152;2023-06-22T03:20:41;9.32;;;8.45;;
31848;SDS011;18414;59.352;18.152;2023-06-22T03:23:06;8.35;;;7.55;;
31848;SDS011;18414;59.352;18.152;2023-06-22T03:25:32;9.27;;;8.45;;
31848;SDS011;18414;59.352;18.152;2023-06-22T03:27:58;9.07;;;8.15;;
31848;SDS011;18414;59.352;18.152;2023-06-22T03:30:24;9.00;;;8.23;;
31848;SDS011;18414;59.352;18.152;2023-06-22T03:32:49;8.15;;;7.40;;
31848;SDS011;18414;59.352;18.152;2023-06-22T03:35:14;9.27;;;7.90;;
31848;SDS011;18414;59.352;18.152;2023-06-22T03:37:40;8.38;;;7.65;;
31848;SDS011;18414;59.352;18.152;2023-06-22T03:40:05;8.55;;;7.85;;
31848;SDS011;18414;59.352;18.152;2023-06-22T03:42:33;8.73;;;7.97;;
31848;SDS011;18414;59.352;18.152;2023-06-22T03:44:59;7.30;;;6.60;;
31848;SDS011;18414;59.352;18.152;2023-06-22T03:47:26;7.40;;;6.75;;
31848;SDS011;18414;59.352;18.152;2023-06-22T03:49:51;8.50;;;7.70;;
31848;SDS011;18414;59.352;18.152;2023-06-22T03:52:19;8.88;;;7.82;;
31848;SDS011;18414;59.352;18.152;2023-06-22T03:54:45;7.63;;;7.03;;
31848;SDS011;18414;59.352;18.152;2023-06-22T03:57:10;7.22;;;6.53;;
31848;SDS011;18414;59.352;18.152;2023-06-22T03:59:36;7.60;;;6.93;;
31848;SDS011;18414;59.352;18.152;2023-06-22T04:02:01;7.65;;;6.50;;
31848;SDS011;18414;59.352;18.152;2023-06-22T04:04:27;8.05;;;7.35;;
31848;SDS011;18414;59.352;18.152;2023-06-22T04:06:52;9.07;;;8.15;;
31848;SDS011;18414;59.352;18.152;2023-06-22T04:09:18;7.47;;;6.78;;
31848;SDS011;18414;59.352;18.152;2023-06-22T04:11:43;8.73;;;7.93;;
31848;SDS011;18414;59.352;18.152;2023-06-22T04:14:08;8.77;;;7.97;;
31848;SDS011;18414;59.352;18.152;2023-06-22T04:16:34;7.95;;;7.18;;
31848;SDS011;18414;59.352;18.152;2023-06-22T04:19:00;9.32;;;8.40;;
31848;SDS011;18414;59.352;18.152;2023-06-22T04:21:25;8.88;;;8.02;;
31848;SDS011;18414;59.352;18.152;2023-06-22T04:23:50;8.63;;;7.85;;
31848;SDS011;18414;59.352;18.152;2023-06-22T04:26:16;8.98;;;8.15;;
31848;SDS011;18414;59.352;18.152;2023-06-22T04:28:41;9.05;;;8.13;;
31848;SDS011;18414;59.352;18.152;2023-06-22T04:31:06;8.85;;;8.05;;
31848;SDS011;18414;59.352;18.152;2023-06-22T04:33:32;8.60;;;7.80;;
31848;SDS011;18414;59.352;18.152;2023-06-22T04:35:58;8.80;;;8.00;;
31848;SDS011;18414;59.352;18.152;2023-06-22T04:38:23;8.68;;;7.88;;
31848;SDS011;18414;59.352;18.152;2023-06-22T04:40:49;8.20;;;7.50;;
31848;SDS011;18414;59.352;18.152;2023-06-22T04:43:18;8.60;;;7.80;;
31848;SDS011;18414;59.352;18.152;2023-06-22T04:45:44;10.00;;;7.32;;
31848;SDS011;18414;59.352;18.152;2023-06-22T04:48:10;9.32;;;7.45;;
31848;SDS011;18414;59.352;18.152;2023-06-22T04:50:37;8.45;;;7.65;;
31848;SDS011;18414;59.352;18.152;2023-06-22T04:53:04;8.40;;;7.60;;
31848;SDS011;18414;59.352;18.152;2023-06-22T04:55:30;7.95;;;7.15;;
31848;SDS011;18414;59.352;18.152;2023-06-22T04:57:57;8.40;;;7.60;;
31848;SDS011;18414;59.352;18.152;2023-06-22T05:00:29;7.85;;;6.93;;
31848;SDS011;18414;59.352;18.152;2023-06-22T05:02:54;7.90;;;7.10;;
31848;SDS011;18414;59.352;18.152;2023-06-22T05:05:22;10.43;;;6.88;;
31848;SDS011;18414;59.352;18.152;2023-06-22T05:07:47;7.20;;;6.50;;
31848;SDS011;18414;59.352;18.152;2023-06-22T05:10:15;7.97;;;7.13;;
31848;SDS011;18414;59.352;18.152;2023-06-22T05:12:41;8.48;;;7.00;;
31848;SDS011;18414;59.352;18.152;2023-06-22T05:15:07;7.20;;;6.38;;
31848;SDS011;18414;59.352;18.152;2023-06-22T05:17:33;7.50;;;6.80;;
31848;SDS011;18414;59.352;18.152;2023-06-22T05:19:58;7.65;;;6.95;;
31848;SDS011;18414;59.352;18.152;2023-06-22T05:22:24;7.32;;;6.63;;
31848;SDS011;18414;59.352;18.152;2023-06-22T05:24:49;7.00;;;6.15;;
31848;SDS011;18414;59.352;18.152;2023-06-22T05:27:14;7.03;;;6.40;;
31848;SDS011;18414;59.352;18.152;2023-06-22T05:29:40;7.40;;;6.70;;
31848;SDS011;18414;59.352;18.152;2023-06-22T05:32:07;8.73;;;6.28;;
31848;SDS011;18414;59.352;18.152;2023-06-22T05:34:33;7.68;;;6.93;;
31848;SDS011;18414;59.352;18.152;2023-06-22T05:36:58;6.97;;;6.38;;
31848;SDS011;18414;59.352;18.152;2023-06-22T05:39:23;6.85;;;6.20;;
31848;SDS011;18414;59.352;18.152;2023-06-22T05:41:49;6.50;;;5.90;;
31848;SDS011;18414;59.352;18.152;2023-06-22T05:44:14;19.45;;;6.55;;
31848;SDS011;18414;59.352;18.152;2023-06-22T05:46:40;6.90;;;6.20;;
31848;SDS011;18414;59.352;18.152;2023-06-22T05:49:12;7.63;;;6.93;;
31848;SDS011;18414;59.352;18.152;2023-06-22T05:51:37;9.93;;;6.20;;
31848;SDS011;18414;59.352;18.152;2023-06-22T05:54:03;7.70;;;6.10;;
31848;SDS011;18414;59.352;18.152;2023-06-22T05:56:28;6.97;;;5.75;;
31848;SDS011;18414;59.352;18.152;2023-06-22T05:58:53;6.93;;;5.50;;
31848;SDS011;18414;59.352;18.152;2023-06-22T06:01:19;6.30;;;5.68;;
31848;SDS011;18414;59.352;18.152;2023-06-22T06:03:45;5.70;;;5.20;;
31848;SDS011;18414;59.352;18.152;2023-06-22T06:06:10;6.10;;;5.50;;
31848;SDS011;18414;59.352;18.152;2023-06-22T06:08:36;6.03;;;5.43;;
31848;SDS011;18414;59.352;18.152;2023-06-22T06:11:02;10.85;;;6.05;;
31848;SDS011;18414;59.352;18.152;2023-06-22T06:13:27;5.90;;;5.30;;
31848;SDS011;18414;59.352;18.152;2023-06-22T06:15:53;5.72;;;5.03;;
31848;SDS011;18414;59.352;18.152;2023-06-22T06:18:20;43.67;;;10.75;;
31848;SDS011;18414;59.352;18.152;2023-06-22T06:20:45;11.85;;;5.80;;
31848;SDS011;18414;59.352;18.152;2023-06-22T06:23:11;5.90;;;5.40;;
31848;SDS011;18414;59.352;18.152;2023-06-22T06:25:36;6.25;;;5.55;;
31848;SDS011;18414;59.352;18.152;2023-06-22T06:28:01;6.22;;;5.63;;
31848;SDS011;18414;59.352;18.152;2023-06-22T06:30:27;43.45;;;9.50;;
31848;SDS011;18414;59.352;18.152;2023-06-22T06:32:52;70.57;;;12.60;;
31848;SDS011;18414;59.352;18.152;2023-06-22T06:35:17;9.50;;;6.45;;
31848;SDS011;18414;59.352;18.152;2023-06-22T06:37:44;10.80;;;5.85;;
31848;SDS011;18414;59.352;18.152;2023-06-22T06:40:12;6.63;;;6.03;;
31848;SDS011;18414;59.352;18.152;2023-06-22T06:42:38;5.93;;;5.32;;
31848;SDS011;18414;59.352;18.152;2023-06-22T06:45:07;7.22;;;5.35;;
31848;SDS011;18414;59.352;18.152;2023-06-22T06:47:33;6.30;;;4.97;;
31848;SDS011;18414;59.352;18.152;2023-06-22T06:49:58;6.30;;;5.47;;
31848;SDS011;18414;59.352;18.152;2023-06-22T06:52:24;7.15;;;5.28;;
31848;SDS011;18414;59.352;18.152;2023-06-22T06:54:50;7.03;;;5.00;;
31848;SDS011;18414;59.352;18.152;2023-06-22T06:57:17;7.22;;;4.90;;
31848;SDS011;18414;59.352;18.152;2023-06-22T06:59:55;7.35;;;4.93;;
31848;SDS011;18414;59.352;18.152;2023-06-22T07:02:21;5.78;;;4.30;;
31848;SDS011;18414;59.352;18.152;2023-06-22T07:04:47;5.60;;;4.55;;
31848;SDS011;18414;59.352;18.152;2023-06-22T07:07:13;5.82;;;4.90;;
31848;SDS011;18414;59.352;18.152;2023-06-22T07:09:38;6.60;;;4.72;;
31848;SDS011;18414;59.352;18.152;2023-06-22T07:12:04;9.20;;;4.57;;
31848;SDS011;18414;59.352;18.152;2023-06-22T07:14:31;4.85;;;4.35;;
31848;SDS011;18414;59.352;18.152;2023-06-22T07:16:57;6.60;;;5.10;;
31848;SDS011;18414;59.352;18.152;2023-06-22T07:19:25;4.97;;;3.97;;
31848;SDS011;18414;59.352;18.152;2023-06-22T07:21:52;5.82;;;4.13;;
31848;SDS011;18414;59.352;18.152;2023-06-22T07:24:19;6.40;;;4.40;;
31848;SDS011;18414;59.352;18.152;2023-06-22T07:26:45;5.60;;;4.60;;
31848;SDS011;18414;59.352;18.152;2023-06-22T07:29:13;6.25;;;4.30;;
31848;SDS011;18414;59.352;18.152;2023-06-22T07:31:38;7.30;;;4.30;;
31848;SDS011;18414;59.352;18.152;2023-06-22T07:34:05;7.95;;;4.43;;
31848;SDS011;18414;59.352;18.152;2023-06-22T07:36:30;5.47;;;4.13;;
31848;SDS011;18414;59.352;18.152;2023-06-22T07:38:56;5.78;;;4.45;;
31848;SDS011;18414;59.352;18.152;2023-06-22T07:41:23;5.13;;;4.20;;
31848;SDS011;18414;59.352;18.152;2023-06-22T07:43:48;4.78;;;4.30;;
31848;SDS011;18414;59.352;18.152;2023-06-22T07:46:14;5.50;;;4.80;;
31848;SDS011;18414;59.352;18.152;2023-06-22T07:48:40;6.32;;;4.22;;
31848;SDS011;18414;59.352;18.152;2023-06-22T07:51:06;53.90;;;8.57;;
31848;SDS011;18414;59.352;18.152;2023-06-22T07:53:32;23.05;;;6.90;;
31848;SDS011;18414;59.352;18.152;2023-06-22T07:55:58;7.90;;;4.68;;
31848;SDS011;18414;59.352;18.152;2023-06-22T07:58:23;66.95;;;11.88;;
31848;SDS011;18414;59.352;18.152;2023-06-22T08:00:48;25.83;;;6.70;;
31848;SDS011;18414;59.352;18.152;2023-06-22T08:03:14;15.52;;;5.40;;
31848;SDS011;18414;59.352;18.152;2023-06-22T08:05:39;7.32;;;3.88;;
31848;SDS011;18414;59.352;18.152;2023-06-22T08:08:05;29.40;;;7.18;;
31848;SDS011;18414;59.352;18.152;2023-06-22T08:10:30;7.10;;;4.05;;
31848;SDS011;18414;59.352;18.152;2023-06-22T08:12:55;7.07;;;4.18;;
31848;SDS011;18414;59.352;18.152;2023-06-22T08:15:21;5.50;;;4.63;;
31848;SDS011;18414;59.352;18.152;2023-06-22T08:17:47;5.35;;;4.18;;
31848;SDS011;18414;59.352;18.152;2023-06-22T08:20:12;5.82;;;4.35;;
31848;SDS011;18414;59.352;18.152;2023-06-22T08:22:38;5.25;;;4.18;;
31848;SDS011;18414;59.352;18.152;2023-06-22T08:25:04;5.05;;;3.90;;
31848;SDS011;18414;59.352;18.152;2023-06-22T08:27:30;5.68;;;4.25;;
31848;SDS011;18414;59.352;18.152;2023-06-22T08:29:58;4.85;;;3.75;;
31848;SDS011;18414;59.352;18.152;2023-06-22T08:32:25;6.90;;;4.28;;
31848;SDS011;18414;59.352;18.152;2023-06-22T08:34:52;5.00;;;3.92;;
31848;SDS011;18414;59.352;18.152;2023-06-22T08:37:19;6.47;;;4.05;;
31848;SDS011;18414;59.352;18.152;2023-06-22T08:39:44;7.25;;;4.38;;
31848;SDS011;18414;59.352;18.152;2023-06-22T08:42:10;6.55;;;4.35;;
31848;SDS011;18414;59.352;18.152;2023-06-22T08:44:35;14.63;;;4.80;;
31848;SDS011;18414;59.352;18.152;2023-06-22T08:47:00;79.22;;;13.52;;
31848;SDS011;18414;59.352;18.152;2023-06-22T08:49:27;8.70;;;4.40;;
31848;SDS011;18414;59.352;18.152;2023-06-22T08:51:52;6.05;;;4.03;;
31848;SDS011;18414;59.352;18.152;2023-06-22T08:54:19;5.22;;;3.50;;
31848;SDS011;18414;59.352;18.152;2023-06-22T08:56:45;8.32;;;4.40;;
31848;SDS011;18414;59.352;18.152;2023-06-22T08:59:10;6.97;;;4.00;;
31848;SDS011;18414;59.352;18.152;2023-06-22T09:01:35;6.97;;;3.80;;
31848;SDS011;18414;59.352;18.152;2023-06-22T09:04:01;4.90;;;3.80;;
31848;SDS011;18414;59.352;18.152;2023-06-22T09:06:26;5.20;;;3.95;;
31848;SDS011;18414;59.352;18.152;2023-06-22T09:08:52;6.75;;;4.20;;
31848;SDS011;18414;59.352;18.152;2023-06-22T09:11:17;6.05;;;4.20;;
31848;SDS011;18414;59.352;18.152;2023-06-22T09:13:43;6.05;;;4.10;;
31848;SDS011;18414;59.352;18.152;2023-06-22T09:16:08;5.13;;;4.07;;
31848;SDS011;18414;59.352;18.152;2023-06-22T09:18:34;8.48;;;4.05;;
31848;SDS011;18414;59.352;18.152;2023-06-22T09:20:59;7.93;;;3.85;;
31848;SDS011;18414;59.352;18.152;2023-06-22T09:23:24;5.55;;;3.60;;
31848;SDS011;18414;59.352;18.152;2023-06-22T09:25:50;4.22;;;3.83;;
31848;SDS011;18414;59.352;18.152;2023-06-22T09:28:15;5.38;;;3.38;;
31848;SDS011;18414;59.352;18.152;2023-06-22T09:30:42;5.25;;;3.50;;
31848;SDS011;18414;59.352;18.152;2023-06-22T09:33:09;4.75;;;3.35;;
31848;SDS011;18414;59.352;18.152;2023-06-22T09:35:35;5.57;;;3.97;;
31848;SDS011;18414;59.352;18.152;2023-06-22T09:38:01;4.90;;;3.75;;
31848;SDS011;18414;59.352;18.152;2023-06-22T09:40:26;5.70;;;3.58;;
31848;SDS011;18414;59.352;18.152;2023-06-22T09:42:51;5.85;;;3.60;;
31848;SDS011;18414;59.352;18.152;2023-06-22T09:45:16;3.88;;;3.40;;
31848;SDS011;18414;59.352;18.152;2023-06-22T09:47:42;3.97;;;3.30;;
31848;SDS011;18414;59.352;18.152;2023-06-22T09:50:07;7.20;;;3.58;;
31848;SDS011;18414;59.352;18.152;2023-06-22T09:52:33;4.60;;;3.75;;
31848;SDS011;18414;59.352;18.152;2023-06-22T09:54:59;4.75;;;3.75;;
31848;SDS011;18414;59.352;18.152;2023-06-22T09:57:24;6.05;;;3.95;;
31848;SDS011;18414;59.352;18.152;2023-06-22T09:59:49;4.03;;;3.45;;
31848;SDS011;18414;59.352;18.152;2023-06-22T10:02:14;5.65;;;3.45;;
31848;SDS011;18414;59.352;18.152;2023-06-22T10:04:40;5.22;;;4.10;;
31848;SDS011;18414;59.352;18.152;2023-06-22T10:07:05;5.88;;;3.60;;
31848;SDS011;18414;59.352;18.152;2023-06-22T10:09:31;6.70;;;3.47;;
31848;SDS011;18414;59.352;18.152;2023-06-22T10:11:56;4.07;;;3.45;;
31848;SDS011;18414;59.352;18.152;2023-06-22T10:14:22;6.78;;;3.58;;
31848;SDS011;18414;59.352;18.152;2023-06-22T10:16:48;6.22;;;3.85;;
31848;SDS011;18414;59.352;18.152;2023-06-22T10:19:13;4.60;;;3.28;;
31848;SDS011;18414;59.352;18.152;2023-06-22T10:21:38;4.53;;;3.50;;
31848;SDS011;18414;59.352;18.152;2023-06-22T10:24:04;5.10;;;2.78;;
31848;SDS011;18414;59.352;18.152;2023-06-22T10:26:33;4.80;;;3.28;;
31848;SDS011;18414;59.352;18.152;2023-06-22T10:28:59;5.22;;;2.97;;
31848;SDS011;18414;59.352;18.152;2023-06-22T10:31:24;6.28;;;2.95;;
31848;SDS011;18414;59.352;18.152;2023-06-22T10:33:50;4.10;;;2.92;;
31848;SDS011;18414;59.352;18.152;2023-06-22T10:36:15;4.10;;;3.00;;
31848;SDS011;18414;59.352;18.152;2023-06-22T10:38:41;4.32;;;3.10;;
31848;SDS011;18414;59.352;18.152;2023-06-22T10:41:06;5.13;;;2.72;;
31848;SDS011;18414;59.352;18.152;2023-06-22T10:43:31;3.17;;;2.45;;
31848;SDS011;18414;59.352;18.152;2023-06-22T10:45:57;6.63;;;2.63;;
31848;SDS011;18414;59.352;18.152;2023-06-22T10:48:22;5.55;;;2.92;;
31848;SDS011;18414;59.352;18.152;2023-06-22T10:50:47;7.93;;;2.63;;
31848;SDS011;18414;59.352;18.152;2023-06-22T10:53:13;7.82;;;2.63;;
31848;SDS011;18414;59.352;18.152;2023-06-22T10:55:38;11.90;;;2.70;;
31848;SDS011;18414;59.352;18.152;2023-06-22T10:58:03;4.80;;;2.75;;
31848;SDS011;18414;59.352;18.152;2023-06-22T11:00:29;6.95;;;2.75;;
31848;SDS011;18414;59.352;18.152;2023-06-22T11:02:54;5.32;;;2.50;;
31848;SDS011;18414;59.352;18.152;2023-06-22T11:05:19;5.80;;;2.50;;
31848;SDS011;18414;59.352;18.152;2023-06-22T11:07:45;4.40;;;2.92;;
31848;SDS011;18414;59.352;18.152;2023-06-22T11:10:12;6.03;;;2.65;;
31848;SDS011;18414;59.352;18.152;2023-06-22T11:12:37;5.60;;;2.63;;
31848;SDS011;18414;59.352;18.152;2023-06-22T11:15:03;5.70;;;2.55;;
31848;SDS011;18414;59.352;18.152;2023-06-22T11:17:29;5.13;;;2.60;;
31848;SDS011;18414;59.352;18.152;2023-06-22T11:19:55;4.50;;;2.50;;
31848;SDS011;18414;59.352;18.152;2023-06-22T11:22:20;4.07;;;2.70;;
31848;SDS011;18414;59.352;18.152;2023-06-22T11:24:45;4.20;;;2.47;;
31848;SDS011;18414;59.352;18.152;2023-06-22T11:27:11;5.75;;;2.53;;
31848;SDS011;18414;59.352;18.152;2023-06-22T11:29:36;4.65;;;2.70;;
31848;SDS011;18414;59.352;18.152;2023-06-22T11:32:03;5.63;;;2.67;;
31848;SDS011;18414;59.352;18.152;2023-06-22T11:34:29;5.75;;;2.08;;
31848;SDS011;18414;59.352;18.152;2023-06-22T11:36:54;9.48;;;2.40;;
31848;SDS011;18414;59.352;18.152;2023-06-22T11:39:20;5.82;;;2.10;;
31848;SDS011;18414;59.352;18.152;2023-06-22T11:41:45;2.65;;;2.30;;
31848;SDS011;18414;59.352;18.152;2023-06-22T11:44:10;6.13;;;2.40;;
31848;SDS011;18414;59.352;18.152;2023-06-22T11:46:36;5.72;;;2.78;;
31848;SDS011;18414;59.352;18.152;2023-06-22T11:49:02;4.85;;;2.53;;
31848;SDS011;18414;59.352;18.152;2023-06-22T11:51:27;3.30;;;1.85;;
31848;SDS011;18414;59.352;18.152;2023-06-22T11:53:53;4.15;;;2.28;;
31848;SDS011;18414;59.352;18.152;2023-06-22T11:56:19;6.10;;;2.38;;
31848;SDS011;18414;59.352;18.152;2023-06-22T11:58:44;5.50;;;2.53;;
31848;SDS011;18414;59.352;18.152;2023-06-22T12:01:09;3.50;;;2.45;;
31848;SDS011;18414;59.352;18.152;2023-06-22T12:03:34;11.70;;;2.78;;
31848;SDS011;18414;59.352;18.152;2023-06-22T12:06:00;7.60;;;2.67;;
31848;SDS011;18414;59.352;18.152;2023-06-22T12:08:25;5.07;;;2.38;;
31848;SDS011;18414;59.352;18.152;2023-06-22T12:10:51;8.55;;;2.47;;
31848;SDS011;18414;59.352;18.152;2023-06-22T12:13:16;4.28;;;2.33;;
31848;SDS011;18414;59.352;18.152;2023-06-22T12:15:42;2.63;;;2.30;;
31848;SDS011;18414;59.352;18.152;2023-06-22T12:18:10;5.32;;;2.55;;
31848;SDS011;18414;59.352;18.152;2023-06-22T12:20:36;4.78;;;2.47;;
31848;SDS011;18414;59.352;18.152;2023-06-22T12:23:01;4.18;;;2.60;;
31848;SDS011;18414;59.352;18.152;2023-06-22T12:25:26;5.63;;;2.30;;
31848;SDS011;18414;59.352;18.152;2023-06-22T12:27:52;5.97;;;2.72;;
31848;SDS011;18414;59.352;18.152;2023-06-22T12:30:17;5.88;;;2.60;;
31848;SDS011;18414;59.352;18.152;2023-06-22T12:32:42;3.75;;;2.38;;
31848;SDS011;18414;59.352;18.152;2023-06-22T12:35:08;6.95;;;2.60;;
31848;SDS011;18414;59.352;18.152;2023-06-22T12:37:38;4.05;;;2.70;;
31848;SDS011;18414;59.352;18.152;2023-06-22T12:40:07;4.78;;;2.47;;
31848;SDS011;18414;59.352;18.152;2023-06-22T12:42:33;4.50;;;2.30;;
31848;SDS011;18414;59.352;18.152;2023-06-22T12:44:58;2.97;;;2.53;;
31848;SDS011;18414;59.352;18.152;2023-06-22T12:47:23;5.28;;;3.13;;
31848;SDS011;18414;59.352;18.152;2023-06-22T12:49:49;3.67;;;2.50;;
31848;SDS011;18414;59.352;18.152;2023-06-22T12:52:14;4.13;;;2.60;;
31848;SDS011;18414;59.352;18.152;2023-06-22T12:54:39;9.40;;;2.92;;
31848;SDS011;18414;59.352;18.152;2023-06-22T12:57:05;3.28;;;2.35;;
31848;SDS011;18414;59.352;18.152;2023-06-22T12:59:30;3.25;;;2.22;;
31848;SDS011;18414;59.352;18.152;2023-06-22T13:01:56;3.38;;;2.60;;
31848;SDS011;18414;59.352;18.152;2023-06-22T13:04:21;4.38;;;2.55;;
31848;SDS011;18414;59.352;18.152;2023-06-22T13:06:46;4.28;;;2.63;;
31848;SDS011;18414;59.352;18.152;2023-06-22T13:09:13;3.72;;;2.30;;
31848;SDS011;18414;59.352;18.152;2023-06-22T13:11:39;3.22;;;2.60;;
31848;SDS011;18414;59.352;18.152;2023-06-22T13:14:05;4.60;;;3.10;;
31848;SDS011;18414;59.352;18.152;2023-06-22T13:16:30;4.20;;;2.40;;
31848;SDS011;18414;59.352;18.152;2023-06-22T13:18:56;5.53;;;2.83;;
31848;SDS011;18414;59.352;18.152;2023-06-22T13:21:21;7.63;;;2.75;;
31848;SDS011;18414;59.352;18.152;2023-06-22T13:23:47;4.57;;;2.60;;
31848;SDS011;18414;59.352;18.152;2023-06-22T13:26:12;5.05;;;2.85;;
31848;SDS011;18414;59.352;18.152;2023-06-22T13:28:37;4.10;;;2.60;;
31848;SDS011;18414;59.352;18.152;2023-06-22T13:31:03;3.38;;;2.65;;
31848;SDS011;18414;59.352;18.152;2023-06-22T13:33:28;10.60;;;3.10;;
31848;SDS011;18414;59.352;18.152;2023-06-22T13:35:54;4.93;;;2.88;;
31848;SDS011;18414;59.352;18.152;2023-06-22T13:38:19;5.03;;;2.60;;
31848;SDS011;18414;59.352;18.152;2023-06-22T13:40:45;4.40;;;2.50;;
31848;SDS011;18414;59.352;18.152;2023-06-22T13:43:12;4.97;;;2.50;;
31848;SDS011;18414;59.352;18.152;2023-06-22T13:45:37;4.63;;;2.35;;
31848;SDS011;18414;59.352;18.152;2023-06-22T13:48:03;3.10;;;2.40;;
31848;SDS011;18414;59.352;18.152;2023-06-22T13:50:28;4.22;;;2.65;;
31848;SDS011;18414;59.352;18.152;2023-06-22T13:52:54;5.00;;;2.42;;
31848;SDS011;18414;59.352;18.152;2023-06-22T13:55:20;4.00;;;2.53;;
31848;SDS011;18414;59.352;18.152;2023-06-22T13:57:46;3.83;;;2.25;;
31848;SDS011;18414;59.352;18.152;2023-06-22T14:00:11;6.63;;;2.90;;
31848;SDS011;18414;59.352;18.152;2023-06-22T14:02:37;5.13;;;2.35;;
31848;SDS011;18414;59.352;18.152;2023-06-22T14:05:04;7.70;;;2.55;;
31848;SDS011;18414;59.352;18.152;2023-06-22T14:07:31;5.50;;;2.50;;
31848;SDS011;18414;59.352;18.152;2023-06-22T14:09:56;5.88;;;2.30;;
31848;SDS011;18414;59.352;18.152;2023-06-22T14:12:23;5.10;;;2.65;;
31848;SDS011;18414;59.352;18.152;2023-06-22T14:14:48;3.95;;;2.70;;
31848;SDS011;18414;59.352;18.152;2023-06-22T14:17:13;3.15;;;2.70;;
31848;SDS011;18414;59.352;18.152;2023-06-22T14:19:39;2.50;;;2.28;;
31848;SDS011;18414;59.352;18.152;2023-06-22T14:22:04;4.00;;;2.70;;
31848;SDS011;18414;59.352;18.152;2023-06-22T14:24:30;3.10;;;2.40;;
31848;SDS011;18414;59.352;18.152;2023-06-22T14:26:55;4.28;;;2.45;;
31848;SDS011;18414;59.352;18.152;2023-06-22T14:29:23;3.17;;;2.15;;